sensor_id;sensor_type;location;lat;lon;timestamp;pressure;altitude;pressure_sealevel;temperature;humidity
22872;BME280;11603;44.910;8.630;2022-07-22T00:00:12;100532.13;;;29.48;66.96
22872;BME280;11603;44.910;8.630;2022-07-22T00:02:38;100530.72;;;29.26;68.98
22872;BME280;11603;44.910;8.630;2022-07-22T00:05:04;100533.06;;;29.22;69.36
22872;BME280;11603;44.910;8.630;2022-07-22T00:07:30;100534.16;;;29.15;70.68
22872;BME280;11603;44.910;8.630;2022-07-22T00:09:55;100532.50;;;29.07;71.98
22872;BME280;11603;44.910;8.630;2022-07-22T00:12:21;100535.44;;;29.05;71.97
22872;BME280;11603;44.910;8.630;2022-07-22T00:14:46;100536.34;;;28.99;73.79
22872;BME280;11603;44.910;8.630;2022-07-22T00:17:12;100537.16;;;29.00;73.90
22872;BME280;11603;44.910;8.630;2022-07-22T00:19:38;100538.66;;;28.96;74.00
22872;BME280;11603;44.910;8.630;2022-07-22T00:22:03;100527.22;;;28.99;75.17
22872;BME280;11603;44.910;8.630;2022-07-22T00:24:29;100534.41;;;29.00;74.93
22872;BME280;11603;44.910;8.630;2022-07-22T00:26:54;100531.44;;;29.01;75.38
22872;BME280;11603;44.910;8.630;2022-07-22T00:29:20;100531.44;;;29.01;75.54
22872;BME280;11603;44.910;8.630;2022-07-22T00:31:46;100528.69;;;29.01;75.96
22872;BME280;11603;44.910;8.630;2022-07-22T00:34:11;100531.25;;;28.96;76.24
22872;BME280;11603;44.910;8.630;2022-07-22T00:36:38;100533.59;;;28.93;76.28
22872;BME280;11603;44.910;8.630;2022-07-22T00:39:04;100532.09;;;28.97;76.77
22872;BME280;11603;44.910;8.630;2022-07-22T00:41:30;100530.59;;;28.94;76.59
22872;BME280;11603;44.910;8.630;2022-07-22T00:44:04;100525.31;;;28.99;75.74
22872;BME280;11603;44.910;8.630;2022-07-22T00:46:31;100532.47;;;29.14;75.21
22872;BME280;11603;44.910;8.630;2022-07-22T00:48:57;100529.28;;;29.17;75.28
22872;BME280;11603;44.910;8.630;2022-07-22T00:51:24;100528.66;;;29.15;75.41
22872;BME280;11603;44.910;8.630;2022-07-22T00:53:52;100523.81;;;29.03;77.50
22872;BME280;11603;44.910;8.630;2022-07-22T00:56:18;100528.28;;;29.04;77.41
22872;BME280;11603;44.910;8.630;2022-07-22T00:58:47;100524.25;;;29.00;77.50
22872;BME280;11603;44.910;8.630;2022-07-22T01:01:13;100529.34;;;28.90;78.98
22872;BME280;11603;44.910;8.630;2022-07-22T01:03:39;100523.66;;;28.85;79.52
22872;BME280;11603;44.910;8.630;2022-07-22T01:06:06;100524.31;;;28.81;79.04
22872;BME280;11603;44.910;8.630;2022-07-22T01:08:32;100528.09;;;28.93;79.36
22872;BME280;11603;44.910;8.630;2022-07-22T01:11:12;100515.97;;;29.00;78.81
22872;BME280;11603;44.910;8.630;2022-07-22T01:13:40;100519.38;;;28.96;79.37
22872;BME280;11603;44.910;8.630;2022-07-22T01:16:07;100523.03;;;28.83;81.39
22872;BME280;11603;44.910;8.630;2022-07-22T01:18:33;100530.88;;;28.80;81.33
22872;BME280;11603;44.910;8.630;2022-07-22T01:21:00;100527.25;;;28.86;82.22
22872;BME280;11603;44.910;8.630;2022-07-22T01:23:26;100524.94;;;28.76;83.36
22872;BME280;11603;44.910;8.630;2022-07-22T01:25:52;100520.06;;;28.58;85.56
22872;BME280;11603;44.910;8.630;2022-07-22T01:28:18;100521.78;;;28.53;87.60
22872;BME280;11603;44.910;8.630;2022-07-22T01:30:44;100520.09;;;28.52;85.58
22872;BME280;11603;44.910;8.630;2022-07-22T01:33:09;100520.31;;;28.57;87.16
22872;BME280;11603;44.910;8.630;2022-07-22T01:35:35;100522.41;;;28.55;88.78
22872;BME280;11603;44.910;8.630;2022-07-22T01:38:00;100527.28;;;28.53;87.82
22872;BME280;11603;44.910;8.630;2022-07-22T01:40:26;100523.25;;;28.55;88.81
22872;BME280;11603;44.910;8.630;2022-07-22T01:42:52;100520.06;;;28.65;86.64
22872;BME280;11603;44.910;8.630;2022-07-22T01:45:17;100527.50;;;28.78;87.17
22872;BME280;11603;44.910;8.630;2022-07-22T01:47:43;100524.56;;;28.73;89.41
22872;BME280;11603;44.910;8.630;2022-07-22T01:50:10;100523.03;;;28.70;88.87
22872;BME280;11603;44.910;8.630;2022-07-22T01:52:38;100530.44;;;28.70;88.12
22872;BME280;11603;44.910;8.630;2022-07-22T01:55:05;100523.88;;;28.64;90.05
22872;BME280;11603;44.910;8.630;2022-07-22T01:57:31;100527.72;;;28.50;92.15
22872;BME280;11603;44.910;8.630;2022-07-22T01:59:58;100534.50;;;28.34;93.61
22872;BME280;11603;44.910;8.630;2022-07-22T02:02:24;100527.94;;;28.29;93.40
22872;BME280;11603;44.910;8.630;2022-07-22T02:04:49;100530.50;;;28.37;95.17
22872;BME280;11603;44.910;8.630;2022-07-22T02:07:15;100534.72;;;28.39;93.98
22872;BME280;11603;44.910;8.630;2022-07-22T02:09:40;100531.97;;;28.46;93.68
22872;BME280;11603;44.910;8.630;2022-07-22T02:12:06;100529.84;;;28.35;93.12
22872;BME280;11603;44.910;8.630;2022-07-22T02:14:39;100530.91;;;28.14;93.03
22872;BME280;11603;44.910;8.630;2022-07-22T02:17:06;100533.19;;;27.97;93.99
22872;BME280;11603;44.910;8.630;2022-07-22T02:19:32;100539.94;;;27.88;94.25
22872;BME280;11603;44.910;8.630;2022-07-22T02:21:57;100533.78;;;27.79;95.49
22872;BME280;11603;44.910;8.630;2022-07-22T02:24:23;100527.22;;;27.80;95.81
22872;BME280;11603;44.910;8.630;2022-07-22T02:26:48;100538.88;;;27.96;96.65
22872;BME280;11603;44.910;8.630;2022-07-22T02:29:14;100536.56;;;28.06;94.75
22872;BME280;11603;44.910;8.630;2022-07-22T02:31:39;100536.56;;;27.93;96.53
22872;BME280;11603;44.910;8.630;2022-07-22T02:34:07;100538.84;;;27.76;97.76
22872;BME280;11603;44.910;8.630;2022-07-22T02:36:32;100547.25;;;27.55;99.79
22872;BME280;11603;44.910;8.630;2022-07-22T02:38:58;100540.66;;;27.49;100.00
22872;BME280;11603;44.910;8.630;2022-07-22T02:41:24;100544.94;;;27.52;100.00
22872;BME280;11603;44.910;8.630;2022-07-22T02:43:53;100543.22;;;27.51;100.00
22872;BME280;11603;44.910;8.630;2022-07-22T02:46:23;100546.34;;;27.41;100.00
22872;BME280;11603;44.910;8.630;2022-07-22T02:48:50;100546.50;;;27.33;100.00
22872;BME280;11603;44.910;8.630;2022-07-22T02:51:18;100541.00;;;27.33;100.00
22872;BME280;11603;44.910;8.630;2022-07-22T02:53:44;100540.00;;;27.40;100.00
22872;BME280;11603;44.910;8.630;2022-07-22T02:56:09;100539.38;;;27.45;100.00
22872;BME280;11603;44.910;8.630;2022-07-22T02:58:35;100545.88;;;27.37;100.00
22872;BME280;11603;44.910;8.630;2022-07-22T03:01:00;100542.69;;;27.27;100.00
22872;BME280;11603;44.910;8.630;2022-07-22T03:03:26;100547.81;;;27.44;100.00
22872;BME280;11603;44.910;8.630;2022-07-22T03:05:53;100543.97;;;27.79;98.37
22872;BME280;11603;44.910;8.630;2022-07-22T03:08:36;100543.56;;;28.08;96.38
22872;BME280;11603;44.910;8.630;2022-07-22T03:11:02;100542.69;;;28.01;96.67
22872;BME280;11603;44.910;8.630;2022-07-22T03:13:27;100548.84;;;27.97;96.73
22872;BME280;11603;44.910;8.630;2022-07-22T03:15:53;100541.44;;;27.84;97.85
22872;BME280;11603;44.910;8.630;2022-07-22T03:18:20;100545.84;;;27.78;97.70
22872;BME280;11603;44.910;8.630;2022-07-22T03:20:46;100538.25;;;27.74;96.03
22872;BME280;11603;44.910;8.630;2022-07-22T03:23:11;100539.06;;;27.68;96.97
22872;BME280;11603;44.910;8.630;2022-07-22T03:25:37;100542.00;;;27.66;96.73
22872;BME280;11603;44.910;8.630;2022-07-22T03:28:04;100548.97;;;27.62;95.87
22872;BME280;11603;44.910;8.630;2022-07-22T03:30:30;100551.50;;;27.57;95.94
22872;BME280;11603;44.910;8.630;2022-07-22T03:32:57;100556.50;;;27.47;96.74
22872;BME280;11603;44.910;8.630;2022-07-22T03:35:22;100553.31;;;27.44;98.19
22872;BME280;11603;44.910;8.630;2022-07-22T03:37:48;100559.22;;;27.40;99.12
22872;BME280;11603;44.910;8.630;2022-07-22T03:40:15;100552.69;;;27.42;99.35
22872;BME280;11603;44.910;8.630;2022-07-22T03:42:42;100553.13;;;27.45;99.17
22872;BME280;11603;44.910;8.630;2022-07-22T03:45:08;100563.91;;;27.47;98.74
22872;BME280;11603;44.910;8.630;2022-07-22T03:47:38;100557.50;;;27.33;99.27
22872;BME280;11603;44.910;8.630;2022-07-22T03:50:05;100560.34;;;27.12;100.00
22872;BME280;11603;44.910;8.630;2022-07-22T03:52:30;100563.88;;;26.99;100.00
22872;BME280;11603;44.910;8.630;2022-07-22T03:54:58;100557.94;;;26.95;100.00
22872;BME280;11603;44.910;8.630;2022-07-22T03:57:24;100565.13;;;26.90;100.00
22872;BME280;11603;44.910;8.630;2022-07-22T03:59:59;100569.44;;;26.78;100.00
22872;BME280;11603;44.910;8.630;2022-07-22T04:02:25;100566.16;;;26.89;100.00
22872;BME280;11603;44.910;8.630;2022-07-22T04:04:50;100568.09;;;26.95;100.00
22872;BME280;11603;44.910;8.630;2022-07-22T04:07:17;100565.03;;;26.83;100.00
22872;BME280;11603;44.910;8.630;2022-07-22T04:09:43;100565.41;;;26.80;100.00
22872;BME280;11603;44.910;8.630;2022-07-22T04:12:08;100565.97;;;26.97;100.00
22872;BME280;11603;44.910;8.630;2022-07-22T04:14:44;100567.81;;;27.24;100.00
22872;BME280;11603;44.910;8.630;2022-07-22T04:17:10;100569.94;;;27.63;99.31
22872;BME280;11603;44.910;8.630;2022-07-22T04:19:36;100571.44;;;27.79;98.23
22872;BME280;11603;44.910;8.630;2022-07-22T04:22:12;100567.06;;;28.04;96.58
22872;BME280;11603;44.910;8.630;2022-07-22T04:24:38;100574.31;;;28.51;94.08
22872;BME280;11603;44.910;8.630;2022-07-22T04:27:03;100575.16;;;28.78;91.22
22872;BME280;11603;44.910;8.630;2022-07-22T04:29:29;100574.47;;;29.02;89.57
22872;BME280;11603;44.910;8.630;2022-07-22T04:31:55;100583.50;;;29.36;86.62
22872;BME280;11603;44.910;8.630;2022-07-22T04:34:20;100584.53;;;29.86;83.79
22872;BME280;11603;44.910;8.630;2022-07-22T04:36:48;100586.91;;;30.45;79.93
22872;BME280;11603;44.910;8.630;2022-07-22T04:39:15;100576.28;;;30.92;76.36
22872;BME280;11603;44.910;8.630;2022-07-22T04:41:48;100577.50;;;31.39;73.94
22872;BME280;11603;44.910;8.630;2022-07-22T04:44:16;100580.59;;;31.79;71.26
22872;BME280;11603;44.910;8.630;2022-07-22T04:46:41;100581.88;;;32.36;68.63
22872;BME280;11603;44.910;8.630;2022-07-22T04:49:07;100580.75;;;32.90;66.19
22872;BME280;11603;44.910;8.630;2022-07-22T04:51:34;100588.91;;;33.08;64.96
22872;BME280;11603;44.910;8.630;2022-07-22T04:54:04;100587.72;;;33.79;63.23
22872;BME280;11603;44.910;8.630;2022-07-22T04:56:29;100585.94;;;34.18;61.04
22872;BME280;11603;44.910;8.630;2022-07-22T04:58:55;100584.31;;;35.01;58.90
22872;BME280;11603;44.910;8.630;2022-07-22T05:01:23;100578.91;;;35.54;56.26
22872;BME280;11603;44.910;8.630;2022-07-22T05:03:50;100582.94;;;36.12;54.21
22872;BME280;11603;44.910;8.630;2022-07-22T05:06:18;100582.47;;;36.47;52.86
22872;BME280;11603;44.910;8.630;2022-07-22T05:08:43;100581.22;;;35.79;52.65
22872;BME280;11603;44.910;8.630;2022-07-22T05:11:09;100599.41;;;35.43;53.32
22872;BME280;11603;44.910;8.630;2022-07-22T05:13:35;100594.94;;;35.42;53.19
22872;BME280;11603;44.910;8.630;2022-07-22T05:16:05;100591.25;;;35.58;53.05
22872;BME280;11603;44.910;8.630;2022-07-22T05:18:33;100587.66;;;35.63;52.72
22872;BME280;11603;44.910;8.630;2022-07-22T05:21:01;100587.38;;;35.64;52.49
22872;BME280;11603;44.910;8.630;2022-07-22T05:23:26;100582.00;;;35.75;52.85
22872;BME280;11603;44.910;8.630;2022-07-22T05:25:52;100585.06;;;35.56;52.86
22872;BME280;11603;44.910;8.630;2022-07-22T05:28:18;100597.09;;;36.05;52.17
22872;BME280;11603;44.910;8.630;2022-07-22T05:30:46;100580.31;;;36.00;52.48
22872;BME280;11603;44.910;8.630;2022-07-22T05:33:11;100584.97;;;35.68;52.57
22872;BME280;11603;44.910;8.630;2022-07-22T05:35:46;100584.19;;;35.12;53.55
22872;BME280;11603;44.910;8.630;2022-07-22T05:38:12;100595.69;;;34.82;54.55
22872;BME280;11603;44.910;8.630;2022-07-22T05:40:37;100592.56;;;34.45;55.88
22872;BME280;11603;44.910;8.630;2022-07-22T05:43:03;100594.59;;;34.05;57.52
22872;BME280;11603;44.910;8.630;2022-07-22T05:45:29;100594.50;;;33.72;60.01
22872;BME280;11603;44.910;8.630;2022-07-22T05:47:55;100590.06;;;33.59;60.93
22872;BME280;11603;44.910;8.630;2022-07-22T05:50:20;100594.19;;;33.45;62.58
22872;BME280;11603;44.910;8.630;2022-07-22T05:52:46;100593.84;;;33.30;64.14
22872;BME280;11603;44.910;8.630;2022-07-22T05:55:11;100597.97;;;32.69;68.19
22872;BME280;11603;44.910;8.630;2022-07-22T05:57:43;100606.47;;;32.56;69.46
22872;BME280;11603;44.910;8.630;2022-07-22T06:00:10;100605.03;;;32.53;71.39
22872;BME280;11603;44.910;8.630;2022-07-22T06:02:43;100606.91;;;32.29;73.08
22872;BME280;11603;44.910;8.630;2022-07-22T06:05:13;100607.75;;;32.00;75.26
22872;BME280;11603;44.910;8.630;2022-07-22T06:07:39;100603.06;;;31.71;75.54
22872;BME280;11603;44.910;8.630;2022-07-22T06:10:08;100613.22;;;31.59;76.92
22872;BME280;11603;44.910;8.630;2022-07-22T06:12:33;100610.97;;;31.49;79.01
22872;BME280;11603;44.910;8.630;2022-07-22T06:14:59;100618.97;;;31.57;80.21
22872;BME280;11603;44.910;8.630;2022-07-22T06:17:25;100614.72;;;31.36;80.97
22872;BME280;11603;44.910;8.630;2022-07-22T06:19:52;100619.50;;;31.29;82.54
22872;BME280;11603;44.910;8.630;2022-07-22T06:22:18;100615.19;;;31.15;83.84
22872;BME280;11603;44.910;8.630;2022-07-22T06:24:44;100621.19;;;31.12;84.89
22872;BME280;11603;44.910;8.630;2022-07-22T06:27:10;100631.31;;;31.18;85.75
22872;BME280;11603;44.910;8.630;2022-07-22T06:29:35;100632.22;;;31.30;85.65
22872;BME280;11603;44.910;8.630;2022-07-22T06:32:01;100631.41;;;31.30;85.09
22872;BME280;11603;44.910;8.630;2022-07-22T06:34:27;100631.25;;;31.25;85.06
22872;BME280;11603;44.910;8.630;2022-07-22T06:37:03;100633.69;;;31.33;85.43
22872;BME280;11603;44.910;8.630;2022-07-22T06:39:29;100635.56;;;31.39;81.89
22872;BME280;11603;44.910;8.630;2022-07-22T06:42:13;100628.66;;;31.66;81.43
22872;BME280;11603;44.910;8.630;2022-07-22T06:45:06;100635.22;;;31.47;85.70
22872;BME280;11603;44.910;8.630;2022-07-22T06:47:41;100631.88;;;31.45;86.32
22872;BME280;11603;44.910;8.630;2022-07-22T06:50:09;100633.84;;;31.20;89.60
22872;BME280;11603;44.910;8.630;2022-07-22T06:52:40;100635.06;;;31.05;90.53
22872;BME280;11603;44.910;8.630;2022-07-22T06:55:07;100638.38;;;30.89;92.55
22872;BME280;11603;44.910;8.630;2022-07-22T06:57:37;100642.34;;;30.93;93.47
22872;BME280;11603;44.910;8.630;2022-07-22T07:00:05;100643.03;;;30.89;93.92
22872;BME280;11603;44.910;8.630;2022-07-22T07:02:36;100631.50;;;30.98;94.01
22872;BME280;11603;44.910;8.630;2022-07-22T07:05:03;100641.59;;;31.11;93.64
22872;BME280;11603;44.910;8.630;2022-07-22T07:07:28;100633.84;;;31.20;91.76
22872;BME280;11603;44.910;8.630;2022-07-22T07:09:55;100634.25;;;31.23;87.21
22872;BME280;11603;44.910;8.630;2022-07-22T07:12:31;100638.00;;;31.29;92.02
22872;BME280;11603;44.910;8.630;2022-07-22T07:15:18;100648.13;;;31.17;95.96
22872;BME280;11603;44.910;8.630;2022-07-22T07:17:44;100647.16;;;31.04;98.90
22872;BME280;11603;44.910;8.630;2022-07-22T07:20:13;100640.59;;;30.99;99.97
22872;BME280;11603;44.910;8.630;2022-07-22T07:22:39;100644.47;;;30.98;100.00
22872;BME280;11603;44.910;8.630;2022-07-22T07:25:07;100653.34;;;31.06;100.00
22872;BME280;11603;44.910;8.630;2022-07-22T07:27:34;100650.78;;;31.05;100.00
22872;BME280;11603;44.910;8.630;2022-07-22T07:30:01;100644.50;;;31.16;98.25
22872;BME280;11603;44.910;8.630;2022-07-22T07:32:26;100650.13;;;31.28;93.71
22872;BME280;11603;44.910;8.630;2022-07-22T07:34:52;100651.69;;;31.24;98.65
22872;BME280;11603;44.910;8.630;2022-07-22T07:37:18;100649.50;;;31.26;94.68
22872;BME280;11603;44.910;8.630;2022-07-22T07:39:43;100639.75;;;31.41;91.53
22872;BME280;11603;44.910;8.630;2022-07-22T07:42:09;100644.44;;;31.41;95.57
22872;BME280;11603;44.910;8.630;2022-07-22T07:44:35;100645.53;;;31.40;91.44
22872;BME280;11603;44.910;8.630;2022-07-22T07:47:02;100646.22;;;31.35;94.96
22872;BME280;11603;44.910;8.630;2022-07-22T07:49:28;100648.13;;;31.17;99.05
22872;BME280;11603;44.910;8.630;2022-07-22T07:51:54;100641.81;;;31.09;100.00
22872;BME280;11603;44.910;8.630;2022-07-22T07:54:20;100648.97;;;31.17;100.00
22872;BME280;11603;44.910;8.630;2022-07-22T07:56:46;100644.75;;;31.33;95.42
22872;BME280;11603;44.910;8.630;2022-07-22T07:59:12;100648.00;;;31.48;95.86
22872;BME280;11603;44.910;8.630;2022-07-22T08:01:39;100642.78;;;31.58;88.76
22872;BME280;11603;44.910;8.630;2022-07-22T08:04:05;100640.31;;;31.68;86.71
22872;BME280;11603;44.910;8.630;2022-07-22T08:06:31;100646.06;;;31.67;90.81
22872;BME280;11603;44.910;8.630;2022-07-22T08:08:56;100653.63;;;31.60;91.60
22872;BME280;11603;44.910;8.630;2022-07-22T08:11:30;100653.72;;;31.71;91.39
22872;BME280;11603;44.910;8.630;2022-07-22T08:14:07;100648.47;;;31.81;93.90
22872;BME280;11603;44.910;8.630;2022-07-22T08:16:38;100657.22;;;31.78;93.02
22872;BME280;11603;44.910;8.630;2022-07-22T08:19:04;100651.81;;;31.83;86.71
22872;BME280;11603;44.910;8.630;2022-07-22T08:21:30;100653.84;;;31.76;94.97
22872;BME280;11603;44.910;8.630;2022-07-22T08:23:58;100648.00;;;31.84;94.45
22872;BME280;11603;44.910;8.630;2022-07-22T08:26:25;100646.00;;;31.91;95.13
22872;BME280;11603;44.910;8.630;2022-07-22T08:28:51;100647.81;;;31.98;90.29
22872;BME280;11603;44.910;8.630;2022-07-22T08:31:17;100655.41;;;32.02;93.10
22872;BME280;11603;44.910;8.630;2022-07-22T08:33:43;100654.09;;;32.05;92.57
22872;BME280;11603;44.910;8.630;2022-07-22T08:36:08;100644.56;;;32.19;92.25
22872;BME280;11603;44.910;8.630;2022-07-22T08:38:34;100653.59;;;32.26;81.06
22872;BME280;11603;44.910;8.630;2022-07-22T08:41:02;100645.56;;;32.36;79.17
22872;BME280;11603;44.910;8.630;2022-07-22T08:43:27;100647.75;;;32.46;87.05
22872;BME280;11603;44.910;8.630;2022-07-22T08:45:53;100645.84;;;32.46;82.87
22872;BME280;11603;44.910;8.630;2022-07-22T08:48:19;100641.72;;;32.37;83.58
22872;BME280;11603;44.910;8.630;2022-07-22T08:51:14;100641.13;;;32.47;84.83
22872;BME280;11603;44.910;8.630;2022-07-22T08:53:53;100643.78;;;32.42;83.40
22872;BME280;11603;44.910;8.630;2022-07-22T08:56:18;100644.53;;;32.49;87.28
22872;BME280;11603;44.910;8.630;2022-07-22T08:58:44;100640.69;;;32.50;89.30
22872;BME280;11603;44.910;8.630;2022-07-22T09:01:14;100638.19;;;32.60;81.03
22872;BME280;11603;44.910;8.630;2022-07-22T09:03:47;100645.19;;;32.74;78.33
22872;BME280;11603;44.910;8.630;2022-07-22T09:06:13;100635.72;;;32.82;77.75
22872;BME280;11603;44.910;8.630;2022-07-22T09:08:58;100635.81;;;32.87;83.05
22872;BME280;11603;44.910;8.630;2022-07-22T09:11:43;100639.31;;;32.94;77.94
22872;BME280;11603;44.910;8.630;2022-07-22T09:14:16;100628.34;;;32.99;75.97
22872;BME280;11603;44.910;8.630;2022-07-22T09:16:48;100627.38;;;33.05;77.08
22872;BME280;11603;44.910;8.630;2022-07-22T09:19:32;100636.16;;;33.13;75.30
22872;BME280;11603;44.910;8.630;2022-07-22T09:22:36;100631.03;;;33.17;76.53
22872;BME280;11603;44.910;8.630;2022-07-22T09:25:33;100625.38;;;33.24;75.10
22872;BME280;11603;44.910;8.630;2022-07-22T09:28:20;100628.13;;;33.24;75.43
22872;BME280;11603;44.910;8.630;2022-07-22T09:31:04;100625.59;;;33.34;74.90
22872;BME280;11603;44.910;8.630;2022-07-22T09:33:35;100628.38;;;33.34;74.16
22872;BME280;11603;44.910;8.630;2022-07-22T09:36:17;100624.34;;;33.41;76.91
22872;BME280;11603;44.910;8.630;2022-07-22T09:38:42;100614.94;;;33.54;72.85
22872;BME280;11603;44.910;8.630;2022-07-22T09:41:08;100612.38;;;33.52;72.68
22872;BME280;11603;44.910;8.630;2022-07-22T09:43:37;100623.03;;;33.44;72.84
22872;BME280;11603;44.910;8.630;2022-07-22T09:46:04;100622.28;;;33.48;72.79
22872;BME280;11603;44.910;8.630;2022-07-22T09:49:01;100609.47;;;33.59;71.69
22872;BME280;11603;44.910;8.630;2022-07-22T09:51:39;100612.16;;;33.54;70.78
22872;BME280;11603;44.910;8.630;2022-07-22T09:54:25;100617.41;;;33.67;69.92
22872;BME280;11603;44.910;8.630;2022-07-22T09:56:51;100606.31;;;33.79;69.52
22872;BME280;11603;44.910;8.630;2022-07-22T09:59:18;100608.56;;;33.82;68.54
22872;BME280;11603;44.910;8.630;2022-07-22T10:02:03;100600.44;;;33.92;68.55
22872;BME280;11603;44.910;8.630;2022-07-22T10:04:30;100604.81;;;33.88;65.93
22872;BME280;11603;44.910;8.630;2022-07-22T10:07:00;100599.56;;;33.75;62.08
22872;BME280;11603;44.910;8.630;2022-07-22T10:09:33;100602.31;;;33.86;64.11
22872;BME280;11603;44.910;8.630;2022-07-22T10:12:01;100603.78;;;34.06;61.61
22872;BME280;11603;44.910;8.630;2022-07-22T10:14:28;100597.03;;;34.18;63.76
22872;BME280;11603;44.910;8.630;2022-07-22T10:16:57;100589.78;;;34.29;62.72
22872;BME280;11603;44.910;8.630;2022-07-22T10:19:23;100594.78;;;34.43;61.67
22872;BME280;11603;44.910;8.630;2022-07-22T10:21:49;100590.16;;;34.49;60.43
22872;BME280;11603;44.910;8.630;2022-07-22T10:24:16;100586.16;;;34.45;59.69
22872;BME280;11603;44.910;8.630;2022-07-22T10:26:58;100588.19;;;34.50;58.98
22872;BME280;11603;44.910;8.630;2022-07-22T10:29:38;100579.94;;;34.55;57.87
22872;BME280;11603;44.910;8.630;2022-07-22T10:40:19;100560.25;;;34.73;58.34
22872;BME280;11603;44.910;8.630;2022-07-22T10:45:24;100558.91;;;34.75;57.97
22872;BME280;11603;44.910;8.630;2022-07-22T10:47:55;100558.66;;;34.77;55.27
22872;BME280;11603;44.910;8.630;2022-07-22T10:50:41;100553.75;;;34.84;54.80
22872;BME280;11603;44.910;8.630;2022-07-22T10:53:09;100554.00;;;34.82;54.67
22872;BME280;11603;44.910;8.630;2022-07-22T10:55:36;100551.25;;;35.04;53.68
22872;BME280;11603;44.910;8.630;2022-07-22T11:01:10;100547.38;;;35.22;52.09
22872;BME280;11603;44.910;8.630;2022-07-22T11:04:07;100546.31;;;35.28;52.77
22872;BME280;11603;44.910;8.630;2022-07-22T11:06:58;100545.69;;;35.43;48.82
22872;BME280;11603;44.910;8.630;2022-07-22T11:09:32;100545.03;;;35.57;49.21
22872;BME280;11603;44.910;8.630;2022-07-22T11:11:57;100535.22;;;35.77;50.03
22872;BME280;11603;44.910;8.630;2022-07-22T11:14:27;100533.53;;;36.02;47.57
22872;BME280;11603;44.910;8.630;2022-07-22T11:16:56;100530.25;;;36.05;47.72
22872;BME280;11603;44.910;8.630;2022-07-22T11:19:24;100526.63;;;36.05;47.10
22872;BME280;11603;44.910;8.630;2022-07-22T11:21:52;100535.47;;;36.02;47.13
22872;BME280;11603;44.910;8.630;2022-07-22T11:24:19;100525.09;;;36.19;47.44
22872;BME280;11603;44.910;8.630;2022-07-22T11:26:50;100524.84;;;36.21;47.18
22872;BME280;11603;44.910;8.630;2022-07-22T11:29:31;100531.34;;;36.31;46.90
22872;BME280;11603;44.910;8.630;2022-07-22T11:31:59;100522.66;;;36.28;47.32
22872;BME280;11603;44.910;8.630;2022-07-22T11:34:26;100520.41;;;36.25;47.81
22872;BME280;11603;44.910;8.630;2022-07-22T11:36:53;100521.09;;;36.42;46.17
22872;BME280;11603;44.910;8.630;2022-07-22T11:39:21;100511.66;;;36.43;47.75
22872;BME280;11603;44.910;8.630;2022-07-22T11:41:48;100507.69;;;36.39;46.29
22872;BME280;11603;44.910;8.630;2022-07-22T11:44:21;100496.06;;;36.47;42.06
22872;BME280;11603;44.910;8.630;2022-07-22T11:46:47;100499.03;;;36.35;40.13
22872;BME280;11603;44.910;8.630;2022-07-22T11:49:15;100503.84;;;36.45;40.55
22872;BME280;11603;44.910;8.630;2022-07-22T11:51:41;100492.50;;;36.57;41.57
22872;BME280;11603;44.910;8.630;2022-07-22T11:54:08;100489.41;;;36.53;42.20
22872;BME280;11603;44.910;8.630;2022-07-22T11:56:34;100493.53;;;36.45;42.20
22872;BME280;11603;44.910;8.630;2022-07-22T11:59:00;100498.03;;;36.51;41.13
22872;BME280;11603;44.910;8.630;2022-07-22T12:01:31;100480.84;;;36.65;42.76
22872;BME280;11603;44.910;8.630;2022-07-22T12:04:08;100484.72;;;36.59;43.01
22872;BME280;11603;44.910;8.630;2022-07-22T12:06:38;100477.25;;;36.69;42.61
22872;BME280;11603;44.910;8.630;2022-07-22T12:09:05;100482.81;;;36.64;42.40
22872;BME280;11603;44.910;8.630;2022-07-22T12:11:32;100474.63;;;36.47;42.65
22872;BME280;11603;44.910;8.630;2022-07-22T12:14:08;100472.78;;;36.63;42.53
22872;BME280;11603;44.910;8.630;2022-07-22T12:16:35;100469.50;;;36.76;42.33
22872;BME280;11603;44.910;8.630;2022-07-22T12:19:05;100470.41;;;36.87;43.05
22872;BME280;11603;44.910;8.630;2022-07-22T12:21:36;100466.81;;;36.97;41.99
22872;BME280;11603;44.910;8.630;2022-07-22T12:24:14;100464.34;;;37.05;40.86
22872;BME280;11603;44.910;8.630;2022-07-22T12:26:40;100466.34;;;37.10;40.50
22872;BME280;11603;44.910;8.630;2022-07-22T12:29:28;100462.19;;;37.22;41.91
22872;BME280;11603;44.910;8.630;2022-07-22T12:32:04;100458.03;;;37.20;41.66
22872;BME280;11603;44.910;8.630;2022-07-22T12:36:57;100440.16;;;37.16;42.35
22872;BME280;11603;44.910;8.630;2022-07-22T12:39:23;100446.13;;;36.87;42.91
22872;BME280;11603;44.910;8.630;2022-07-22T12:41:53;100452.78;;;36.81;43.14
22872;BME280;11603;44.910;8.630;2022-07-22T12:44:23;100446.09;;;36.77;43.49
22872;BME280;11603;44.910;8.630;2022-07-22T12:46:54;100446.59;;;36.69;43.84
22872;BME280;11603;44.910;8.630;2022-07-22T12:49:24;100439.88;;;36.65;43.84
22872;BME280;11603;44.910;8.630;2022-07-22T12:52:11;100439.41;;;36.36;44.84
22872;BME280;11603;44.910;8.630;2022-07-22T12:54:38;100433.00;;;36.36;45.06
22872;BME280;11603;44.910;8.630;2022-07-22T12:57:05;100427.44;;;36.36;45.70
22872;BME280;11603;44.910;8.630;2022-07-22T12:59:31;100428.06;;;36.48;45.18
22872;BME280;11603;44.910;8.630;2022-07-22T13:01:56;100423.75;;;36.67;44.98
22872;BME280;11603;44.910;8.630;2022-07-22T13:04:22;100424.44;;;36.47;45.03
22872;BME280;11603;44.910;8.630;2022-07-22T13:06:48;100416.91;;;36.43;45.44
22872;BME280;11603;44.910;8.630;2022-07-22T13:09:14;100413.84;;;36.49;45.45
22872;BME280;11603;44.910;8.630;2022-07-22T13:11:40;100413.81;;;36.44;45.27
22872;BME280;11603;44.910;8.630;2022-07-22T13:14:09;100400.03;;;36.70;44.75